createdAt,value
2022-08-25T00:00:13.884Z,8.07
2022-08-25T00:02:41.569Z,8.70
2022-08-25T00:05:22.876Z,7.80
2022-08-25T00:07:50.455Z,7.72
2022-08-25T00:10:20.293Z,7.63
2022-08-25T00:12:47.907Z,8.23
2022-08-25T00:15:15.608Z,8.13
2022-08-25T00:17:43.245Z,8.43
2022-08-25T00:20:11.086Z,7.82
2022-08-25T00:22:38.803Z,9.23
2022-08-25T00:25:06.845Z,8.45
2022-08-25T00:27:36.034Z,8.48
2022-08-25T00:30:04.408Z,7.90
2022-08-25T00:32:32.046Z,7.28
2022-08-25T00:35:00.706Z,7.85
2022-08-25T00:37:28.560Z,7.72
2022-08-25T00:39:57.135Z,7.50
2022-08-25T00:42:25.385Z,8.35
2022-08-25T00:44:54.616Z,8.55
2022-08-25T00:47:22.560Z,8.77
2022-08-25T00:49:52.163Z,8.98
2022-08-25T00:52:21.634Z,8.23
2022-08-25T00:54:51.752Z,8.48
2022-08-25T00:57:33.936Z,8.73
2022-08-25T01:00:08.099Z,8.35
2022-08-25T01:02:35.818Z,8.77
2022-08-25T01:05:03.527Z,8.45
2022-08-25T01:07:31.218Z,8.18
2022-08-25T01:10:00.168Z,8.75
2022-08-25T01:12:28.112Z,8.52
2022-08-25T01:14:56.532Z,7.55
2022-08-25T01:17:28.051Z,8.63
2022-08-25T01:19:56.486Z,8.20
2022-08-25T01:22:26.694Z,8.65
2022-08-25T01:24:58.629Z,8.70
2022-08-25T01:27:26.301Z,9.23
2022-08-25T01:29:53.923Z,9.15
2022-08-25T01:32:21.636Z,9.10
2022-08-25T01:34:49.297Z,8.32
2022-08-25T01:37:20.577Z,9.05
2022-08-25T01:39:49.694Z,8.15
2022-08-25T01:42:25.199Z,10.30
2022-08-25T01:44:52.838Z,8.45
2022-08-25T01:47:20.499Z,8.38
2022-08-25T01:49:48.569Z,8.75
2022-08-25T01:52:20.467Z,9.13
2022-08-25T01:54:50.626Z,9.27
2022-08-25T01:57:18.479Z,8.20
2022-08-25T01:59:47.486Z,8.73
2022-08-25T02:02:15.319Z,9.43
2022-08-25T02:04:46.031Z,10.02
2022-08-25T02:07:13.675Z,8.55
2022-08-25T02:09:41.343Z,9.50
2022-08-25T02:12:10.327Z,9.55
2022-08-25T02:14:38.456Z,8.40
2022-08-25T02:17:06.567Z,9.05
2022-08-25T02:19:34.324Z,8.57
2022-08-25T02:22:02.384Z,9.88
2022-08-25T02:24:30.018Z,8.57
2022-08-25T02:26:58.041Z,9.70
2022-08-25T02:29:27.150Z,9.90
2022-08-25T02:31:54.748Z,9.02
2022-08-25T02:34:23.271Z,10.13
2022-08-25T02:36:51.039Z,9.45
2022-08-25T02:39:18.794Z,9.52
2022-08-25T02:41:46.473Z,8.95
2022-08-25T02:44:14.080Z,10.40
2022-08-25T02:46:43.236Z,10.48
2022-08-25T02:49:10.811Z,9.30
2022-08-25T02:51:38.862Z,10.02
2022-08-25T02:54:07.126Z,9.15
2022-08-25T02:56:34.732Z,10.52
2022-08-25T02:59:03.019Z,10.45
2022-08-25T03:01:30.867Z,9.88
2022-08-25T03:04:01.667Z,11.60
2022-08-25T03:06:29.750Z,10.95
2022-08-25T03:08:57.422Z,9.70
2022-08-25T03:11:26.510Z,11.05
2022-08-25T03:13:54.464Z,10.07
2022-08-25T03:16:22.262Z,10.88
2022-08-25T03:18:50.546Z,11.32
2022-08-25T03:21:20.411Z,10.95
2022-08-25T03:23:48.461Z,9.73
2022-08-25T03:26:33.452Z,10.38
2022-08-25T03:29:05.097Z,11.43
2022-08-25T03:31:33.598Z,10.55
2022-08-25T03:34:01.243Z,10.60
2022-08-25T03:36:30.343Z,10.45
2022-08-25T03:38:58.008Z,9.98
2022-08-25T03:41:29.559Z,9.48
2022-08-25T03:43:57.213Z,10.82
2022-08-25T03:46:26.476Z,10.10
2022-08-25T03:48:54.301Z,10.60
2022-08-25T03:51:22.653Z,10.77
2022-08-25T03:53:51.849Z,10.27
2022-08-25T03:56:19.841Z,9.95
2022-08-25T03:58:47.786Z,10.38
2022-08-25T04:01:16.050Z,10.02
2022-08-25T04:03:46.022Z,10.38
2022-08-25T04:06:13.952Z,12.60
2022-08-25T04:08:41.600Z,10.82
2022-08-25T04:11:11.935Z,10.25
2022-08-25T04:13:39.704Z,11.75
2022-08-25T04:16:11.142Z,9.77
2022-08-25T04:18:38.838Z,10.50
2022-08-25T04:21:09.072Z,10.88
2022-08-25T04:23:37.080Z,10.82
2022-08-25T04:26:09.935Z,11.70
2022-08-25T04:28:39.083Z,11.55
2022-08-25T04:31:07.755Z,12.95
2022-08-25T04:33:35.495Z,12.50
2022-08-25T04:36:03.213Z,11.90
2022-08-25T04:38:32.163Z,12.60
2022-08-25T04:41:01.360Z,12.88
2022-08-25T04:43:29.028Z,12.30
2022-08-25T04:45:58.039Z,12.38
2022-08-25T04:48:25.822Z,12.57
2022-08-25T04:50:53.445Z,12.55
2022-08-25T04:53:22.419Z,12.02
2022-08-25T04:55:50.232Z,12.10
2022-08-25T04:58:18.040Z,12.80
2022-08-25T05:00:46.583Z,12.90
2022-08-25T05:03:15.760Z,12.15
2022-08-25T05:05:43.500Z,12.63
2022-08-25T05:08:11.187Z,12.88
2022-08-25T05:10:40.600Z,12.90
2022-08-25T05:13:10.554Z,13.50
2022-08-25T05:15:53.300Z,13.90
2022-08-25T05:18:23.141Z,14.50
2022-08-25T05:20:51.309Z,14.57
2022-08-25T05:23:18.973Z,14.00
2022-08-25T05:25:46.652Z,14.70
2022-08-25T05:28:14.716Z,15.23
2022-08-25T05:30:43.094Z,14.43
2022-08-25T05:33:11.351Z,14.90
2022-08-25T05:35:40.328Z,15.63
2022-08-25T05:38:07.907Z,16.75
2022-08-25T05:40:43.265Z,14.77
2022-08-25T05:43:12.500Z,15.35
2022-08-25T05:45:40.487Z,16.58
2022-08-25T05:48:08.525Z,16.92
2022-08-25T05:50:36.301Z,15.18
2022-08-25T05:53:05.386Z,15.40
2022-08-25T05:55:32.976Z,15.88
2022-08-25T05:58:00.714Z,16.30
2022-08-25T06:00:28.516Z,16.80
2022-08-25T06:02:55.191Z,17.08
2022-08-25T06:05:23.533Z,17.30
2022-08-25T06:07:52.817Z,16.73
2022-08-25T06:10:21.988Z,18.00
2022-08-25T06:12:50.135Z,17.17
2022-08-25T06:15:18.944Z,15.88
2022-08-25T06:17:47.976Z,16.45
2022-08-25T06:20:16.703Z,15.25
2022-08-25T06:22:44.757Z,14.77
2022-08-25T06:25:13.391Z,16.00
2022-08-25T06:27:42.674Z,15.75
2022-08-25T06:30:12.740Z,14.27
2022-08-25T06:32:44.810Z,16.13
2022-08-25T06:35:13.899Z,14.80
2022-08-25T06:37:42.510Z,15.27
2022-08-25T06:40:11.598Z,14.43
2022-08-25T06:42:39.771Z,14.00
2022-08-25T06:45:10.321Z,15.90
2022-08-25T06:47:38.233Z,14.55
2022-08-25T06:50:06.424Z,16.50
2022-08-25T06:52:35.643Z,15.68
2022-08-25T06:55:03.451Z,15.05
2022-08-25T06:57:31.797Z,14.75
2022-08-25T07:00:00.802Z,15.57
2022-08-25T07:02:31.460Z,15.48
2022-08-25T07:05:04.566Z,14.52
2022-08-25T07:07:43.012Z,15.07
2022-08-25T07:10:13.104Z,15.52
2022-08-25T07:12:41.660Z,14.98
2022-08-25T07:15:19.856Z,14.27
2022-08-25T07:17:49.932Z,14.35
2022-08-25T07:20:19.224Z,15.75
2022-08-25T07:22:47.890Z,14.65
2022-08-25T07:25:15.931Z,16.65
2022-08-25T07:27:45.628Z,15.98
2022-08-25T07:30:13.784Z,14.27
2022-08-25T07:32:42.102Z,15.95
2022-08-25T07:35:19.185Z,15.57
2022-08-25T07:37:49.438Z,15.27
2022-08-25T07:40:18.594Z,16.58
2022-08-25T07:42:46.250Z,16.67
2022-08-25T07:48:03.546Z,15.13
2022-08-25T07:50:32.963Z,16.58
2022-08-25T07:53:01.019Z,15.60
2022-08-25T07:55:30.336Z,16.38
2022-08-25T07:57:59.653Z,16.70
2022-08-25T08:00:29.918Z,16.65
2022-08-25T08:02:58.242Z,15.45
2022-08-25T08:05:27.244Z,18.33
2022-08-25T08:07:56.763Z,17.88
2022-08-25T08:13:17.776Z,17.67
2022-08-25T08:15:46.687Z,18.35
2022-08-25T08:18:14.411Z,19.05
2022-08-25T08:20:44.336Z,18.65
2022-08-25T08:23:13.838Z,20.83
2022-08-25T08:25:41.902Z,20.30
2022-08-25T08:28:10.913Z,20.63
2022-08-25T08:30:38.816Z,19.17
2022-08-25T08:33:10.075Z,18.92
2022-08-25T08:35:39.245Z,18.38
2022-08-25T08:38:14.502Z,19.55
2022-08-25T08:41:08.851Z,17.80
2022-08-25T08:43:37.304Z,16.10
2022-08-25T08:46:08.385Z,16.33
2022-08-25T08:48:45.379Z,16.08
2022-08-25T08:51:19.911Z,14.15
2022-08-25T08:53:53.712Z,13.05
2022-08-25T08:56:30.728Z,12.15
2022-08-25T08:59:05.127Z,10.80
2022-08-25T09:01:34.660Z,10.18
2022-08-25T09:04:06.400Z,8.65
2022-08-25T09:06:38.895Z,8.77
2022-08-25T09:09:07.142Z,7.60
2022-08-25T09:11:46.369Z,7.18
2022-08-25T09:14:21.235Z,7.88
2022-08-25T09:16:58.440Z,6.10
2022-08-25T09:19:42.418Z,6.72
2022-08-25T09:22:35.700Z,6.22
2022-08-25T09:25:10.392Z,5.70
2022-08-25T09:27:41.725Z,5.65
2022-08-25T09:30:10.856Z,6.35
2022-08-25T09:32:40.755Z,5.10
2022-08-25T09:35:09.199Z,5.50
2022-08-25T09:37:36.748Z,5.50
2022-08-25T09:40:05.126Z,6.28
2022-08-25T09:42:51.127Z,5.35
2022-08-25T09:45:33.130Z,5.20
2022-08-25T09:48:00.789Z,4.97
2022-08-25T09:50:32.252Z,6.22
2022-08-25T09:53:18.660Z,5.20
2022-08-25T09:55:48.490Z,4.28
2022-08-25T09:58:19.784Z,5.25
2022-08-25T10:01:01.388Z,4.30
2022-08-25T10:03:29.020Z,4.82
2022-08-25T10:06:02.711Z,4.95
2022-08-25T10:08:32.643Z,5.05
2022-08-25T10:11:01.346Z,4.30
2022-08-25T10:13:41.276Z,4.55
2022-08-25T10:16:20.087Z,4.60
2022-08-25T10:19:00.995Z,4.00
2022-08-25T10:21:28.565Z,4.00
2022-08-25T10:23:57.300Z,4.63
2022-08-25T10:26:34.859Z,4.07
2022-08-25T10:29:11.819Z,4.38
2022-08-25T10:31:44.125Z,4.10
2022-08-25T10:34:16.359Z,4.18
2022-08-25T10:36:52.856Z,4.35
2022-08-25T10:39:34.219Z,4.57
2022-08-25T10:42:09.428Z,3.63
2022-08-25T10:45:04.826Z,4.05
2022-08-25T10:47:43.363Z,4.18
2022-08-25T10:50:16.141Z,4.22
2022-08-25T10:52:55.348Z,4.22
2022-08-25T10:55:27.248Z,4.30
2022-08-25T10:57:59.094Z,3.15
2022-08-25T11:00:33.272Z,4.00
2022-08-25T11:03:07.917Z,3.70
2022-08-25T11:05:40.334Z,3.60
2022-08-25T11:08:11.477Z,4.00
2022-08-25T11:10:42.645Z,3.80
2022-08-25T11:13:15.496Z,3.83
2022-08-25T11:16:06.569Z,4.65
2022-08-25T11:18:39.846Z,3.85
2022-08-25T11:21:09.616Z,3.70
2022-08-25T11:23:39.391Z,4.15
2022-08-25T11:26:11.045Z,3.47
2022-08-25T11:28:44.545Z,3.85
2022-08-25T11:31:15.298Z,3.90
2022-08-25T11:33:44.423Z,3.70
2022-08-25T11:36:18.821Z,3.65
2022-08-25T11:38:51.784Z,3.75
2022-08-25T11:41:24.572Z,3.63
2022-08-25T11:44:02.275Z,3.83
2022-08-25T11:46:40.065Z,3.78
2022-08-25T11:49:16.027Z,4.25
2022-08-25T11:51:44.860Z,3.70
2022-08-25T11:54:18.542Z,3.88
2022-08-25T11:56:52.483Z,3.42
2022-08-25T11:59:35.012Z,3.92
2022-08-25T12:02:03.955Z,4.10
2022-08-25T12:04:44.026Z,3.40
2022-08-25T12:07:20.020Z,3.75
2022-08-25T12:10:10.824Z,3.50
2022-08-25T12:12:39.728Z,3.45
2022-08-25T12:15:21.866Z,3.47
2022-08-25T12:18:09.126Z,3.67
2022-08-25T12:20:56.171Z,3.50
2022-08-25T12:23:28.813Z,3.67
2022-08-25T12:25:58.043Z,3.58
2022-08-25T12:28:44.552Z,3.72
2022-08-25T12:31:24.419Z,3.63
2022-08-25T12:34:04.233Z,4.10
2022-08-25T12:36:33.909Z,3.60
2022-08-25T12:39:18.836Z,3.58
2022-08-25T12:41:54.872Z,3.60
2022-08-25T12:44:34.844Z,5.00
2022-08-25T12:47:08.172Z,4.55
2022-08-25T12:49:37.218Z,3.97
2022-08-25T12:52:06.983Z,3.60
2022-08-25T12:54:47.499Z,3.83
2022-08-25T12:57:30.072Z,3.55
2022-08-25T12:59:59.299Z,3.80
2022-08-25T13:02:44.968Z,3.60
2022-08-25T13:05:37.944Z,3.80
2022-08-25T13:08:19.498Z,4.68
2022-08-25T13:10:49.105Z,3.83
2022-08-25T13:13:24.103Z,3.90
2022-08-25T13:15:59.777Z,3.60
2022-08-25T13:18:28.801Z,3.50
2022-08-25T13:21:02.787Z,4.35
2022-08-25T13:23:34.569Z,4.32
2022-08-25T13:26:02.587Z,4.03
2022-08-25T13:28:31.420Z,4.13
2022-08-25T13:31:00.977Z,3.47
2022-08-25T13:33:28.883Z,3.72
2022-08-25T13:36:11.057Z,4.25
2022-08-25T13:38:40.829Z,4.10
2022-08-25T13:41:18.625Z,4.40
2022-08-25T13:43:46.383Z,3.97
2022-08-25T13:46:15.364Z,5.28
2022-08-25T13:48:49.315Z,4.60
2022-08-25T13:51:21.555Z,3.75
2022-08-25T13:53:51.821Z,4.05
2022-08-25T13:56:35.522Z,3.78
2022-08-25T13:59:07.588Z,3.72
2022-08-25T14:01:49.410Z,3.83
2022-08-25T14:04:22.219Z,4.20
2022-08-25T14:06:50.031Z,3.67
2022-08-25T14:09:28.277Z,3.47
2022-08-25T14:11:57.616Z,3.38
2022-08-25T14:14:31.959Z,4.05
2022-08-25T14:17:16.408Z,3.92
2022-08-25T14:19:49.800Z,4.60
2022-08-25T14:22:17.562Z,4.32
2022-08-25T14:24:46.939Z,3.30
2022-08-25T14:27:14.949Z,4.50
2022-08-25T14:29:42.519Z,3.90
2022-08-25T14:32:10.511Z,4.00
2022-08-25T14:34:39.487Z,4.20
2022-08-25T14:37:12.177Z,4.35
2022-08-25T14:39:44.042Z,4.30
2022-08-25T14:42:13.469Z,4.05
2022-08-25T14:44:41.146Z,4.57
2022-08-25T14:47:08.706Z,4.70
2022-08-25T14:49:37.468Z,4.65
2022-08-25T14:52:07.636Z,4.75
2022-08-25T14:54:37.567Z,4.05
2022-08-25T14:57:08.943Z,4.82
2022-08-25T14:59:40.647Z,4.82
2022-08-25T15:02:13.006Z,4.63
2022-08-25T15:04:42.506Z,4.57
2022-08-25T15:07:30.961Z,4.63
2022-08-25T15:09:59.663Z,4.30
2022-08-25T15:12:46.520Z,4.88
2022-08-25T15:15:16.266Z,5.22
2022-08-25T15:17:47.018Z,4.65
2022-08-25T15:20:17.076Z,4.85
2022-08-25T15:22:45.345Z,4.25
2022-08-25T15:25:13.152Z,5.30
2022-08-25T15:27:41.116Z,4.50
2022-08-25T15:30:09.451Z,4.63
2022-08-25T15:32:42.369Z,4.95
2022-08-25T15:35:10.427Z,5.35
2022-08-25T15:37:38.024Z,4.38
2022-08-25T15:40:08.796Z,5.28
2022-08-25T15:42:37.604Z,5.03
2022-08-25T15:45:11.206Z,5.18
2022-08-25T15:47:38.921Z,4.72
2022-08-25T15:50:11.496Z,4.90
2022-08-25T15:52:46.396Z,4.95
2022-08-25T15:55:15.419Z,5.18
2022-08-25T15:57:42.997Z,5.63
2022-08-25T16:00:12.163Z,5.13
2022-08-25T16:02:41.372Z,5.03
2022-08-25T16:05:11.534Z,5.07
2022-08-25T16:07:41.316Z,6.03
2022-08-25T16:10:09.296Z,6.78
2022-08-25T16:12:39.914Z,4.63
2022-08-25T16:15:12.221Z,4.88
2022-08-25T16:17:40.661Z,5.57
2022-08-25T16:20:13.695Z,4.43
2022-08-25T16:22:42.851Z,5.10
2022-08-25T16:25:11.631Z,5.07
2022-08-25T16:27:39.327Z,5.05
2022-08-25T16:30:08.047Z,5.25
2022-08-25T16:32:35.738Z,5.05
2022-08-25T16:35:03.998Z,5.05
2022-08-25T16:37:33.331Z,5.95
2022-08-25T16:40:01.461Z,6.65
2022-08-25T16:42:29.834Z,5.85
2022-08-25T16:44:57.590Z,4.80
2022-08-25T16:47:27.059Z,5.22
2022-08-25T16:49:55.311Z,6.55
2022-08-25T16:52:40.925Z,5.07
2022-08-25T16:55:13.509Z,8.98
2022-08-25T16:57:42.660Z,5.20
2022-08-25T17:00:12.272Z,5.55
2022-08-25T17:02:40.276Z,5.32
2022-08-25T17:05:08.692Z,5.55
2022-08-25T17:07:36.570Z,5.65
2022-08-25T17:10:04.912Z,6.93
2022-08-25T17:12:35.020Z,5.32
2022-08-25T17:15:03.343Z,5.68
2022-08-25T17:17:39.297Z,6.32
2022-08-25T17:20:07.411Z,7.60
2022-08-25T17:22:36.067Z,6.18
2022-08-25T17:25:03.707Z,5.68
2022-08-25T17:27:35.968Z,5.93
2022-08-25T17:30:03.593Z,6.45
2022-08-25T17:32:31.326Z,6.32
2022-08-25T17:34:59.688Z,5.90
2022-08-25T17:37:27.345Z,6.85
2022-08-25T17:40:02.594Z,6.15
2022-08-25T17:42:31.323Z,5.60
2022-08-25T17:45:00.687Z,6.13
2022-08-25T17:47:28.303Z,6.90
2022-08-25T17:49:55.880Z,9.52
2022-08-25T17:52:25.668Z,7.43
2022-08-25T17:54:53.470Z,7.13
2022-08-25T17:57:22.024Z,7.68
2022-08-25T17:59:49.725Z,6.78
2022-08-25T18:02:18.640Z,7.63
2022-08-25T18:04:46.285Z,7.07
2022-08-25T18:07:14.272Z,8.25
2022-08-25T18:09:41.999Z,8.27
2022-08-25T18:12:09.600Z,7.88
2022-08-25T18:14:39.491Z,7.65
2022-08-25T18:17:07.183Z,7.30
2022-08-25T18:19:36.126Z,7.30
2022-08-25T18:22:06.080Z,8.00
2022-08-25T18:24:35.420Z,8.07
2022-08-25T18:27:02.979Z,8.52
2022-08-25T18:29:31.220Z,8.20
2022-08-25T18:32:00.491Z,7.90
2022-08-25T18:34:28.279Z,8.60
2022-08-25T18:37:19.692Z,6.88
2022-08-25T18:40:04.705Z,7.38
2022-08-25T18:42:35.667Z,6.88
2022-08-25T18:45:04.776Z,7.28
2022-08-25T18:47:32.463Z,9.32
2022-08-25T18:50:04.222Z,8.60
2022-08-25T18:52:33.590Z,7.72
2022-08-25T18:55:02.883Z,10.65
2022-08-25T18:57:30.628Z,7.10
2022-08-25T18:59:58.190Z,7.45
2022-08-25T19:02:25.922Z,7.13
2022-08-25T19:04:53.636Z,10.55
2022-08-25T19:07:21.192Z,7.45
2022-08-25T19:09:50.842Z,8.35
2022-08-25T19:12:22.742Z,7.13
2022-08-25T19:14:50.636Z,7.75
2022-08-25T19:17:18.280Z,7.13
2022-08-25T19:19:45.924Z,7.43
2022-08-25T19:22:37.939Z,7.78
2022-08-25T19:25:02.676Z,7.18
2022-08-25T19:27:30.237Z,10.93
2022-08-25T19:29:57.780Z,7.38
2022-08-25T19:32:25.864Z,7.30
2022-08-25T19:34:54.763Z,7.57
2022-08-25T19:37:26.240Z,8.80
2022-08-25T19:39:54.613Z,9.02
2022-08-25T19:42:36.711Z,8.73
2022-08-25T19:45:06.989Z,7.72
2022-08-25T19:47:34.587Z,8.65
2022-08-25T19:50:02.200Z,9.25
2022-08-25T19:52:30.983Z,9.35
2022-08-25T19:54:58.701Z,8.27
2022-08-25T19:57:42.454Z,8.10
2022-08-25T20:00:12.752Z,8.93
2022-08-25T20:02:41.142Z,9.70
2022-08-25T20:05:08.919Z,8.70
2022-08-25T20:07:36.561Z,10.43
2022-08-25T20:10:05.186Z,8.57
2022-08-25T20:12:35.401Z,9.43
2022-08-25T20:15:03.088Z,10.23
2022-08-25T20:17:31.199Z,8.35
2022-08-25T20:19:59.720Z,8.13
2022-08-25T20:22:28.147Z,8.88
2022-08-25T20:24:56.063Z,8.77
2022-08-25T20:27:26.781Z,8.45
2022-08-25T20:29:55.769Z,9.70
2022-08-25T20:32:24.358Z,8.65
2022-08-25T20:34:53.648Z,11.65
2022-08-25T20:37:23.440Z,10.50
2022-08-25T20:39:52.492Z,10.52
2022-08-25T20:42:20.433Z,8.73
2022-08-25T20:44:48.223Z,9.05
2022-08-25T20:47:20.514Z,9.35
2022-08-25T20:49:49.603Z,9.30
2022-08-25T20:52:18.356Z,10.20
2022-08-25T20:54:49.327Z,9.65
2022-08-25T20:57:17.414Z,9.45
2022-08-25T20:59:45.142Z,10.38
2022-08-25T21:02:13.944Z,10.02
2022-08-25T21:04:49.057Z,9.45
2022-08-25T21:07:18.335Z,9.48
2022-08-25T21:09:46.179Z,10.75
2022-08-25T21:12:13.748Z,9.35
2022-08-25T21:14:43.710Z,9.77
2022-08-25T21:17:12.693Z,11.15
2022-08-25T21:19:41.875Z,9.55
2022-08-25T21:22:11.029Z,8.88
2022-08-25T21:24:39.023Z,8.98
2022-08-25T21:27:07.135Z,9.77
2022-08-25T21:29:35.188Z,9.13
2022-08-25T21:32:02.919Z,10.00
2022-08-25T21:34:31.827Z,9.40
2022-08-25T21:37:00.240Z,9.13
2022-08-25T21:39:31.966Z,9.32
2022-08-25T21:42:00.439Z,9.75
2022-08-25T21:44:28.905Z,10.13
2022-08-25T21:46:57.078Z,9.73
2022-08-25T21:49:25.047Z,8.63
2022-08-25T21:52:00.919Z,8.73
2022-08-25T21:54:31.937Z,8.95
2022-08-25T21:57:02.516Z,9.75
2022-08-25T21:59:32.123Z,9.18
2022-08-25T22:02:01.054Z,10.13
2022-08-25T22:04:29.125Z,12.80
2022-08-25T22:06:57.183Z,9.38
2022-08-25T22:09:26.176Z,9.20
2022-08-25T22:11:57.682Z,9.95
2022-08-25T22:14:27.262Z,9.48
2022-08-25T22:16:55.073Z,9.88
2022-08-25T22:19:23.313Z,10.55
2022-08-25T22:21:53.523Z,11.55
2022-08-25T22:24:21.573Z,9.88
2022-08-25T22:26:49.764Z,9.25
2022-08-25T22:29:25.531Z,9.95
2022-08-25T22:31:53.819Z,10.10
2022-08-25T22:34:31.726Z,10.20
2022-08-25T22:37:00.123Z,9.70
2022-08-25T22:39:28.241Z,8.65
2022-08-25T22:41:55.848Z,9.38
2022-08-25T22:44:25.436Z,9.05
2022-08-25T22:46:53.241Z,10.30
2022-08-25T22:49:21.759Z,8.77
2022-08-25T22:51:49.868Z,8.95
2022-08-25T22:54:18.656Z,10.30
2022-08-25T22:56:46.289Z,11.15
2022-08-25T22:59:14.662Z,10.23
2022-08-25T23:01:45.869Z,9.77
2022-08-25T23:04:14.549Z,10.23
2022-08-25T23:06:42.438Z,10.43
2022-08-25T23:09:10.724Z,10.00
2022-08-25T23:11:38.892Z,10.05
2022-08-25T23:14:08.132Z,10.70
2022-08-25T23:16:35.895Z,11.32
2022-08-25T23:19:05.147Z,10.32
2022-08-25T23:21:50.973Z,10.43
2022-08-25T23:24:29.489Z,11.02
2022-08-25T23:26:58.814Z,9.90
2022-08-25T23:29:27.489Z,10.43
2022-08-25T23:31:55.444Z,10.68
2022-08-25T23:34:24.627Z,11.00
2022-08-25T23:36:52.229Z,9.77
2022-08-25T23:39:22.121Z,11.77
2022-08-25T23:41:50.023Z,11.13
2022-08-25T23:44:18.724Z,9.85
2022-08-25T23:46:47.168Z,11.10
2022-08-25T23:49:18.599Z,11.02
2022-08-25T23:51:48.810Z,11.15
2022-08-25T23:54:17.448Z,11.68
2022-08-25T23:56:52.218Z,11.23
2022-08-25T23:59:20.156Z,12.00
